Terminal Aerodrome Forecast
Issued by NWS

Home | Current Version | Previous Version | Text Only | Print | Product List | Glossary On
Versions: 1 2 3 4 5 6 7 8 9 10 11 12 13 14 15 16 17
000
FTUS43 KDVN 270200 AAA
TAFCID
TAF AMD
KCID 270206Z 2702/2724 VRB03KT 6SM BR FEW025
     FM270300 VRB03KT 5SM BR SCT250
      TEMPO 2704/2708 2SM BR
     FM271500 31017G25KT P6SM SCT060=

USA.gov is the U.S. government's official web portal to all federal, state and local government web resources and services.